sensor_id;sensor_type;location;lat;lon;timestamp;P1;durP1;ratioP1;P2;durP2;ratioP2
68144;SDS011;55400;51.824;-0.196;2024-01-15T00:03:53;5.20;;;unknown;;
68144;SDS011;55400;51.824;-0.196;2024-01-15T00:07:53;2.90;;;unknown;;
68144;SDS011;55400;51.824;-0.196;2024-01-15T00:11:53;2.70;;;unknown;;
68144;SDS011;55400;51.824;-0.196;2024-01-15T00:15:53;2.40;;;unknown;;
68144;SDS011;55400;51.824;-0.196;2024-01-15T00:23:53;3.10;;;unknown;;
68144;SDS011;55400;51.824;-0.196;2024-01-15T00:27:53;5.90;;;unknown;;
68144;SDS011;55400;51.824;-0.196;2024-01-15T00:31:53;3.20;;;unknown;;
68144;SDS011;55400;51.824;-0.196;2024-01-15T00:35:53;4.70;;;unknown;;
68144;SDS011;55400;51.824;-0.196;2024-01-15T00:39:53;2.60;;;unknown;;
68144;SDS011;55400;51.824;-0.196;2024-01-15T00:44:10;2.10;;;unknown;;
68144;SDS011;55400;51.824;-0.196;2024-01-15T00:47:53;3.50;;;unknown;;
68144;SDS011;55400;51.824;-0.196;2024-01-15T00:51:53;4.30;;;unknown;;
68144;SDS011;55400;51.824;-0.196;2024-01-15T00:55:53;2.70;;;unknown;;
68144;SDS011;55400;51.824;-0.196;2024-01-15T00:59:53;2.10;;;unknown;;
68144;SDS011;55400;51.824;-0.196;2024-01-15T01:03:53;2.10;;;unknown;;
68144;SDS011;55400;51.824;-0.196;2024-01-15T01:07:53;2.00;;;unknown;;
68144;SDS011;55400;51.824;-0.196;2024-01-15T01:11:53;2.30;;;unknown;;
68144;SDS011;55400;51.824;-0.196;2024-01-15T01:15:53;2.20;;;unknown;;
68144;SDS011;55400;51.824;-0.196;2024-01-15T01:23:54;2.20;;;unknown;;
68144;SDS011;55400;51.824;-0.196;2024-01-15T01:27:53;3.10;;;unknown;;
68144;SDS011;55400;51.824;-0.196;2024-01-15T01:31:53;2.10;;;unknown;;
68144;SDS011;55400;51.824;-0.196;2024-01-15T01:35:54;2.80;;;unknown;;
68144;SDS011;55400;51.824;-0.196;2024-01-15T01:39:53;2.90;;;unknown;;
68144;SDS011;55400;51.824;-0.196;2024-01-15T01:43:54;2.20;;;unknown;;
68144;SDS011;55400;51.824;-0.196;2024-01-15T01:47:54;2.80;;;unknown;;
68144;SDS011;55400;51.824;-0.196;2024-01-15T01:51:57;3.80;;;unknown;;
68144;SDS011;55400;51.824;-0.196;2024-01-15T01:55:54;4.60;;;unknown;;
68144;SDS011;55400;51.824;-0.196;2024-01-15T01:59:54;2.40;;;unknown;;
68144;SDS011;55400;51.824;-0.196;2024-01-15T02:03:54;3.70;;;unknown;;
68144;SDS011;55400;51.824;-0.196;2024-01-15T02:07:54;3.40;;;unknown;;
68144;SDS011;55400;51.824;-0.196;2024-01-15T02:11:54;2.20;;;unknown;;
68144;SDS011;55400;51.824;-0.196;2024-01-15T02:15:54;3.20;;;unknown;;
68144;SDS011;55400;51.824;-0.196;2024-01-15T02:19:54;2.80;;;unknown;;
68144;SDS011;55400;51.824;-0.196;2024-01-15T02:23:54;4.50;;;unknown;;
68144;SDS011;55400;51.824;-0.196;2024-01-15T02:27:54;3.10;;;unknown;;
68144;SDS011;55400;51.824;-0.196;2024-01-15T02:31:54;2.50;;;unknown;;
68144;SDS011;55400;51.824;-0.196;2024-01-15T02:35:54;3.60;;;unknown;;
68144;SDS011;55400;51.824;-0.196;2024-01-15T02:39:54;2.40;;;unknown;;
68144;SDS011;55400;51.824;-0.196;2024-01-15T02:43:54;4.00;;;unknown;;
68144;SDS011;55400;51.824;-0.196;2024-01-15T02:51:54;5.00;;;unknown;;
68144;SDS011;55400;51.824;-0.196;2024-01-15T02:55:54;3.30;;;unknown;;
68144;SDS011;55400;51.824;-0.196;2024-01-15T03:03:54;2.20;;;unknown;;
68144;SDS011;55400;51.824;-0.196;2024-01-15T03:07:54;2.10;;;unknown;;
68144;SDS011;55400;51.824;-0.196;2024-01-15T03:11:54;3.60;;;unknown;;
68144;SDS011;55400;51.824;-0.196;2024-01-15T03:23:54;2.10;;;unknown;;
68144;SDS011;55400;51.824;-0.196;2024-01-15T03:27:54;2.00;;;unknown;;
68144;SDS011;55400;51.824;-0.196;2024-01-15T03:31:54;2.80;;;unknown;;
68144;SDS011;55400;51.824;-0.196;2024-01-15T03:35:54;2.50;;;unknown;;
68144;SDS011;55400;51.824;-0.196;2024-01-15T03:39:54;1.70;;;unknown;;
68144;SDS011;55400;51.824;-0.196;2024-01-15T03:43:54;2.10;;;unknown;;
68144;SDS011;55400;51.824;-0.196;2024-01-15T03:47:54;2.20;;;unknown;;
68144;SDS011;55400;51.824;-0.196;2024-01-15T03:51:54;1.60;;;unknown;;
68144;SDS011;55400;51.824;-0.196;2024-01-15T03:59:54;2.20;;;unknown;;
68144;SDS011;55400;51.824;-0.196;2024-01-15T04:03:54;2.00;;;unknown;;
68144;SDS011;55400;51.824;-0.196;2024-01-15T04:11:54;2.50;;;unknown;;
68144;SDS011;55400;51.824;-0.196;2024-01-15T04:15:54;2.30;;;unknown;;
68144;SDS011;55400;51.824;-0.196;2024-01-15T04:19:54;2.70;;;unknown;;
68144;SDS011;55400;51.824;-0.196;2024-01-15T04:23:54;2.40;;;unknown;;
68144;SDS011;55400;51.824;-0.196;2024-01-15T04:27:54;2.70;;;unknown;;
68144;SDS011;55400;51.824;-0.196;2024-01-15T04:31:54;3.40;;;unknown;;
68144;SDS011;55400;51.824;-0.196;2024-01-15T04:35:54;2.70;;;unknown;;
68144;SDS011;55400;51.824;-0.196;2024-01-15T04:39:54;2.00;;;unknown;;
68144;SDS011;55400;51.824;-0.196;2024-01-15T04:43:54;2.10;;;unknown;;
68144;SDS011;55400;51.824;-0.196;2024-01-15T04:47:54;2.40;;;unknown;;
68144;SDS011;55400;51.824;-0.196;2024-01-15T04:51:54;2.20;;;unknown;;
68144;SDS011;55400;51.824;-0.196;2024-01-15T04:59:54;2.80;;;unknown;;
68144;SDS011;55400;51.824;-0.196;2024-01-15T05:03:54;2.10;;;unknown;;
68144;SDS011;55400;51.824;-0.196;2024-01-15T05:07:54;1.60;;;unknown;;
68144;SDS011;55400;51.824;-0.196;2024-01-15T05:11:54;3.20;;;unknown;;
68144;SDS011;55400;51.824;-0.196;2024-01-15T05:19:54;2.30;;;unknown;;
68144;SDS011;55400;51.824;-0.196;2024-01-15T05:23:54;2.10;;;unknown;;
68144;SDS011;55400;51.824;-0.196;2024-01-15T05:27:54;1.90;;;unknown;;
68144;SDS011;55400;51.824;-0.196;2024-01-15T05:31:54;1.60;;;unknown;;
68144;SDS011;55400;51.824;-0.196;2024-01-15T05:35:54;2.20;;;unknown;;
68144;SDS011;55400;51.824;-0.196;2024-01-15T05:39:54;2.30;;;unknown;;
68144;SDS011;55400;51.824;-0.196;2024-01-15T05:47:54;2.20;;;unknown;;
68144;SDS011;55400;51.824;-0.196;2024-01-15T05:51:54;1.90;;;unknown;;
68144;SDS011;55400;51.824;-0.196;2024-01-15T05:55:54;2.20;;;unknown;;
68144;SDS011;55400;51.824;-0.196;2024-01-15T06:03:54;1.80;;;unknown;;
68144;SDS011;55400;51.824;-0.196;2024-01-15T06:07:54;1.90;;;unknown;;
68144;SDS011;55400;51.824;-0.196;2024-01-15T06:11:54;1.90;;;unknown;;
68144;SDS011;55400;51.824;-0.196;2024-01-15T06:15:54;1.50;;;unknown;;
68144;SDS011;55400;51.824;-0.196;2024-01-15T06:19:54;2.90;;;unknown;;
68144;SDS011;55400;51.824;-0.196;2024-01-15T06:23:54;1.70;;;unknown;;
68144;SDS011;55400;51.824;-0.196;2024-01-15T06:27:54;1.40;;;unknown;;
68144;SDS011;55400;51.824;-0.196;2024-01-15T06:31:54;2.30;;;unknown;;
68144;SDS011;55400;51.824;-0.196;2024-01-15T06:35:54;1.50;;;unknown;;
68144;SDS011;55400;51.824;-0.196;2024-01-15T06:39:54;2.90;;;unknown;;
68144;SDS011;55400;51.824;-0.196;2024-01-15T06:43:54;1.50;;;unknown;;
68144;SDS011;55400;51.824;-0.196;2024-01-15T06:47:54;1.50;;;unknown;;
68144;SDS011;55400;51.824;-0.196;2024-01-15T06:51:54;1.50;;;unknown;;
68144;SDS011;55400;51.824;-0.196;2024-01-15T06:55:54;1.70;;;unknown;;
68144;SDS011;55400;51.824;-0.196;2024-01-15T06:59:54;0.90;;;unknown;;
68144;SDS011;55400;51.824;-0.196;2024-01-15T07:03:54;2.10;;;unknown;;
68144;SDS011;55400;51.824;-0.196;2024-01-15T07:07:54;4.30;;;unknown;;
68144;SDS011;55400;51.824;-0.196;2024-01-15T07:11:54;1.90;;;unknown;;
68144;SDS011;55400;51.824;-0.196;2024-01-15T07:15:55;2.20;;;unknown;;
68144;SDS011;55400;51.824;-0.196;2024-01-15T07:19:54;1.80;;;unknown;;
68144;SDS011;55400;51.824;-0.196;2024-01-15T07:23:54;1.50;;;unknown;;
68144;SDS011;55400;51.824;-0.196;2024-01-15T07:31:55;3.60;;;unknown;;
68144;SDS011;55400;51.824;-0.196;2024-01-15T07:35:54;1.40;;;unknown;;
68144;SDS011;55400;51.824;-0.196;2024-01-15T07:39:55;1.40;;;unknown;;
68144;SDS011;55400;51.824;-0.196;2024-01-15T07:43:54;1.40;;;unknown;;
68144;SDS011;55400;51.824;-0.196;2024-01-15T07:47:54;1.70;;;unknown;;
68144;SDS011;55400;51.824;-0.196;2024-01-15T07:51:54;1.50;;;unknown;;
68144;SDS011;55400;51.824;-0.196;2024-01-15T07:55:55;1.10;;;unknown;;
68144;SDS011;55400;51.824;-0.196;2024-01-15T07:59:54;2.40;;;unknown;;
68144;SDS011;55400;51.824;-0.196;2024-01-15T08:03:55;1.20;;;unknown;;
68144;SDS011;55400;51.824;-0.196;2024-01-15T08:08:05;2.30;;;unknown;;
68144;SDS011;55400;51.824;-0.196;2024-01-15T08:11:55;2.20;;;unknown;;
68144;SDS011;55400;51.824;-0.196;2024-01-15T08:15:54;3.70;;;unknown;;
68144;SDS011;55400;51.824;-0.196;2024-01-15T08:19:55;1.30;;;unknown;;
68144;SDS011;55400;51.824;-0.196;2024-01-15T08:23:55;1.10;;;unknown;;
68144;SDS011;55400;51.824;-0.196;2024-01-15T08:27:55;5.20;;;unknown;;
68144;SDS011;55400;51.824;-0.196;2024-01-15T08:31:55;5.50;;;unknown;;
68144;SDS011;55400;51.824;-0.196;2024-01-15T08:35:55;1.70;;;unknown;;
68144;SDS011;55400;51.824;-0.196;2024-01-15T08:39:55;1.10;;;unknown;;
68144;SDS011;55400;51.824;-0.196;2024-01-15T08:43:55;1.90;;;unknown;;
68144;SDS011;55400;51.824;-0.196;2024-01-15T08:47:55;3.00;;;unknown;;
68144;SDS011;55400;51.824;-0.196;2024-01-15T08:51:55;4.80;;;unknown;;
68144;SDS011;55400;51.824;-0.196;2024-01-15T08:59:55;3.00;;;unknown;;
68144;SDS011;55400;51.824;-0.196;2024-01-15T09:03:55;3.60;;;unknown;;
68144;SDS011;55400;51.824;-0.196;2024-01-15T09:07:55;4.30;;;unknown;;
68144;SDS011;55400;51.824;-0.196;2024-01-15T09:11:55;2.30;;;unknown;;
68144;SDS011;55400;51.824;-0.196;2024-01-15T09:15:55;1.30;;;unknown;;
68144;SDS011;55400;51.824;-0.196;2024-01-15T09:19:55;1.40;;;unknown;;
68144;SDS011;55400;51.824;-0.196;2024-01-15T09:23:55;1.10;;;unknown;;
68144;SDS011;55400;51.824;-0.196;2024-01-15T09:27:55;0.90;;;unknown;;
68144;SDS011;55400;51.824;-0.196;2024-01-15T09:31:55;2.30;;;unknown;;
68144;SDS011;55400;51.824;-0.196;2024-01-15T09:35:55;2.10;;;unknown;;
68144;SDS011;55400;51.824;-0.196;2024-01-15T09:39:55;1.60;;;unknown;;
68144;SDS011;55400;51.824;-0.196;2024-01-15T09:43:55;2.60;;;unknown;;
68144;SDS011;55400;51.824;-0.196;2024-01-15T09:47:55;3.80;;;unknown;;
68144;SDS011;55400;51.824;-0.196;2024-01-15T09:51:55;2.10;;;unknown;;
68144;SDS011;55400;51.824;-0.196;2024-01-15T09:59:57;2.40;;;unknown;;
68144;SDS011;55400;51.824;-0.196;2024-01-15T10:07:56;2.20;;;unknown;;
68144;SDS011;55400;51.824;-0.196;2024-01-15T10:11:55;1.00;;;unknown;;
68144;SDS011;55400;51.824;-0.196;2024-01-15T10:15:55;1.20;;;unknown;;
68144;SDS011;55400;51.824;-0.196;2024-01-15T10:19:55;3.50;;;unknown;;
68144;SDS011;55400;51.824;-0.196;2024-01-15T10:23:55;1.40;;;unknown;;
68144;SDS011;55400;51.824;-0.196;2024-01-15T10:28:00;2.70;;;unknown;;
68144;SDS011;55400;51.824;-0.196;2024-01-15T10:31:55;2.30;;;unknown;;
68144;SDS011;55400;51.824;-0.196;2024-01-15T10:35:56;1.80;;;unknown;;
68144;SDS011;55400;51.824;-0.196;2024-01-15T10:39:55;2.10;;;unknown;;
68144;SDS011;55400;51.824;-0.196;2024-01-15T10:43:55;2.60;;;unknown;;
68144;SDS011;55400;51.824;-0.196;2024-01-15T10:47:55;1.50;;;unknown;;
68144;SDS011;55400;51.824;-0.196;2024-01-15T10:51:56;1.70;;;unknown;;
68144;SDS011;55400;51.824;-0.196;2024-01-15T10:55:56;1.30;;;unknown;;
68144;SDS011;55400;51.824;-0.196;2024-01-15T11:03:55;1.70;;;unknown;;
68144;SDS011;55400;51.824;-0.196;2024-01-15T11:07:55;3.10;;;unknown;;
68144;SDS011;55400;51.824;-0.196;2024-01-15T11:12:07;0.90;;;unknown;;
68144;SDS011;55400;51.824;-0.196;2024-01-15T11:19:58;3.40;;;unknown;;
68144;SDS011;55400;51.824;-0.196;2024-01-15T11:23:57;1.70;;;unknown;;
68144;SDS011;55400;51.824;-0.196;2024-01-15T11:27:55;1.00;;;unknown;;
68144;SDS011;55400;51.824;-0.196;2024-01-15T11:31:58;1.10;;;unknown;;
68144;SDS011;55400;51.824;-0.196;2024-01-15T11:35:55;0.90;;;unknown;;
68144;SDS011;55400;51.824;-0.196;2024-01-15T11:39:59;2.70;;;unknown;;
68144;SDS011;55400;51.824;-0.196;2024-01-15T11:43:55;1.40;;;unknown;;
68144;SDS011;55400;51.824;-0.196;2024-01-15T11:48:09;1.30;;;unknown;;
68144;SDS011;55400;51.824;-0.196;2024-01-15T11:51:57;2.60;;;unknown;;
68144;SDS011;55400;51.824;-0.196;2024-01-15T11:55:58;3.60;;;unknown;;
68144;SDS011;55400;51.824;-0.196;2024-01-15T11:59:55;1.50;;;unknown;;
68144;SDS011;55400;51.824;-0.196;2024-01-15T12:03:55;3.60;;;unknown;;
68144;SDS011;55400;51.824;-0.196;2024-01-15T12:07:55;1.50;;;unknown;;
68144;SDS011;55400;51.824;-0.196;2024-01-15T12:12:03;1.70;;;unknown;;
68144;SDS011;55400;51.824;-0.196;2024-01-15T12:15:55;3.30;;;unknown;;
68144;SDS011;55400;51.824;-0.196;2024-01-15T12:19:56;1.80;;;unknown;;
68144;SDS011;55400;51.824;-0.196;2024-01-15T12:23:56;3.60;;;unknown;;
68144;SDS011;55400;51.824;-0.196;2024-01-15T12:27:56;4.00;;;unknown;;
68144;SDS011;55400;51.824;-0.196;2024-01-15T12:31:55;2.30;;;unknown;;
68144;SDS011;55400;51.824;-0.196;2024-01-15T12:35:55;3.30;;;unknown;;
68144;SDS011;55400;51.824;-0.196;2024-01-15T12:39:29;3.90;;;unknown;;
68144;SDS011;55400;51.824;-0.196;2024-01-15T12:39:55;3.90;;;unknown;;
68144;SDS011;55400;51.824;-0.196;2024-01-15T12:43:55;3.10;;;unknown;;
68144;SDS011;55400;51.824;-0.196;2024-01-15T12:47:55;3.00;;;unknown;;
68144;SDS011;55400;51.824;-0.196;2024-01-15T12:51:56;2.40;;;unknown;;
68144;SDS011;55400;51.824;-0.196;2024-01-15T12:55:55;2.80;;;unknown;;
68144;SDS011;55400;51.824;-0.196;2024-01-15T12:59:55;3.20;;;unknown;;
68144;SDS011;55400;51.824;-0.196;2024-01-15T13:03:55;4.00;;;unknown;;
68144;SDS011;55400;51.824;-0.196;2024-01-15T13:07:55;1.00;;;unknown;;
68144;SDS011;55400;51.824;-0.196;2024-01-15T13:11:56;3.00;;;unknown;;
68144;SDS011;55400;51.824;-0.196;2024-01-15T13:15:55;2.30;;;unknown;;
68144;SDS011;55400;51.824;-0.196;2024-01-15T13:23:55;2.30;;;unknown;;
68144;SDS011;55400;51.824;-0.196;2024-01-15T13:27:55;1.50;;;unknown;;
68144;SDS011;55400;51.824;-0.196;2024-01-15T13:31:56;1.10;;;unknown;;
68144;SDS011;55400;51.824;-0.196;2024-01-15T13:35:55;2.30;;;unknown;;
68144;SDS011;55400;51.824;-0.196;2024-01-15T13:39:55;1.40;;;unknown;;
68144;SDS011;55400;51.824;-0.196;2024-01-15T13:43:55;2.10;;;unknown;;
68144;SDS011;55400;51.824;-0.196;2024-01-15T13:47:55;4.50;;;unknown;;
68144;SDS011;55400;51.824;-0.196;2024-01-15T13:51:55;2.40;;;unknown;;
68144;SDS011;55400;51.824;-0.196;2024-01-15T13:55:55;2.10;;;unknown;;
68144;SDS011;55400;51.824;-0.196;2024-01-15T13:59:56;2.90;;;unknown;;
68144;SDS011;55400;51.824;-0.196;2024-01-15T14:03:55;3.20;;;unknown;;
68144;SDS011;55400;51.824;-0.196;2024-01-15T14:07:55;5.80;;;unknown;;
68144;SDS011;55400;51.824;-0.196;2024-01-15T14:11:56;1.20;;;unknown;;
68144;SDS011;55400;51.824;-0.196;2024-01-15T14:15:55;1.50;;;unknown;;
68144;SDS011;55400;51.824;-0.196;2024-01-15T14:19:55;2.40;;;unknown;;
68144;SDS011;55400;51.824;-0.196;2024-01-15T14:23:55;3.00;;;unknown;;
68144;SDS011;55400;51.824;-0.196;2024-01-15T14:27:56;3.80;;;unknown;;
68144;SDS011;55400;51.824;-0.196;2024-01-15T14:31:55;4.00;;;unknown;;
68144;SDS011;55400;51.824;-0.196;2024-01-15T14:35:56;2.30;;;unknown;;
68144;SDS011;55400;51.824;-0.196;2024-01-15T14:39:55;2.80;;;unknown;;
68144;SDS011;55400;51.824;-0.196;2024-01-15T14:43:56;2.70;;;unknown;;
68144;SDS011;55400;51.824;-0.196;2024-01-15T14:47:56;3.30;;;unknown;;
68144;SDS011;55400;51.824;-0.196;2024-01-15T14:53:55;2.90;;;unknown;;
68144;SDS011;55400;51.824;-0.196;2024-01-15T14:55:56;2.90;;;unknown;;
68144;SDS011;55400;51.824;-0.196;2024-01-15T14:59:56;3.90;;;unknown;;
68144;SDS011;55400;51.824;-0.196;2024-01-15T15:03:56;2.00;;;unknown;;
68144;SDS011;55400;51.824;-0.196;2024-01-15T15:07:56;1.90;;;unknown;;
68144;SDS011;55400;51.824;-0.196;2024-01-15T15:11:56;2.80;;;unknown;;
68144;SDS011;55400;51.824;-0.196;2024-01-15T15:15:56;2.60;;;unknown;;
68144;SDS011;55400;51.824;-0.196;2024-01-15T15:19:56;2.40;;;unknown;;
68144;SDS011;55400;51.824;-0.196;2024-01-15T15:23:56;3.70;;;unknown;;
68144;SDS011;55400;51.824;-0.196;2024-01-15T15:27:56;3.30;;;unknown;;
68144;SDS011;55400;51.824;-0.196;2024-01-15T15:31:56;4.80;;;unknown;;
68144;SDS011;55400;51.824;-0.196;2024-01-15T15:35:56;1.30;;;unknown;;
68144;SDS011;55400;51.824;-0.196;2024-01-15T15:39:56;2.90;;;unknown;;
68144;SDS011;55400;51.824;-0.196;2024-01-15T15:47:56;2.40;;;unknown;;
68144;SDS011;55400;51.824;-0.196;2024-01-15T15:51:56;5.00;;;unknown;;
68144;SDS011;55400;51.824;-0.196;2024-01-15T15:55:56;2.10;;;unknown;;
68144;SDS011;55400;51.824;-0.196;2024-01-15T16:01:37;5.70;;;unknown;;
68144;SDS011;55400;51.824;-0.196;2024-01-15T16:03:56;5.70;;;unknown;;
68144;SDS011;55400;51.824;-0.196;2024-01-15T16:07:56;4.20;;;unknown;;
68144;SDS011;55400;51.824;-0.196;2024-01-15T16:11:56;3.20;;;unknown;;
68144;SDS011;55400;51.824;-0.196;2024-01-15T16:15:56;3.00;;;unknown;;
68144;SDS011;55400;51.824;-0.196;2024-01-15T16:19:56;2.90;;;unknown;;
68144;SDS011;55400;51.824;-0.196;2024-01-15T16:23:56;3.10;;;unknown;;
68144;SDS011;55400;51.824;-0.196;2024-01-15T16:27:56;5.70;;;unknown;;
68144;SDS011;55400;51.824;-0.196;2024-01-15T16:31:56;3.80;;;unknown;;
68144;SDS011;55400;51.824;-0.196;2024-01-15T16:34:18;4.50;;;unknown;;
68144;SDS011;55400;51.824;-0.196;2024-01-15T16:35:56;4.50;;;unknown;;
68144;SDS011;55400;51.824;-0.196;2024-01-15T16:39:56;3.20;;;unknown;;
68144;SDS011;55400;51.824;-0.196;2024-01-15T16:43:56;4.60;;;unknown;;
68144;SDS011;55400;51.824;-0.196;2024-01-15T16:47:56;10.00;;;unknown;;
68144;SDS011;55400;51.824;-0.196;2024-01-15T16:54:13;4.10;;;unknown;;
68144;SDS011;55400;51.824;-0.196;2024-01-15T16:55:56;4.10;;;unknown;;
68144;SDS011;55400;51.824;-0.196;2024-01-15T17:00:32;5.90;;;unknown;;
68144;SDS011;55400;51.824;-0.196;2024-01-15T17:02:35;5.90;;;unknown;;
68144;SDS011;55400;51.824;-0.196;2024-01-15T17:05:09;3.40;;;unknown;;
68144;SDS011;55400;51.824;-0.196;2024-01-15T17:07:56;3.40;;;unknown;;
68144;SDS011;55400;51.824;-0.196;2024-01-15T17:11:56;4.50;;;unknown;;
68144;SDS011;55400;51.824;-0.196;2024-01-15T17:15:56;7.10;;;unknown;;
68144;SDS011;55400;51.824;-0.196;2024-01-15T17:19:56;4.50;;;unknown;;
68144;SDS011;55400;51.824;-0.196;2024-01-15T17:23:56;3.10;;;unknown;;
68144;SDS011;55400;51.824;-0.196;2024-01-15T17:27:56;3.30;;;unknown;;
68144;SDS011;55400;51.824;-0.196;2024-01-15T17:31:56;3.40;;;unknown;;
68144;SDS011;55400;51.824;-0.196;2024-01-15T17:35:57;4.20;;;unknown;;
68144;SDS011;55400;51.824;-0.196;2024-01-15T17:39:56;4.70;;;unknown;;
68144;SDS011;55400;51.824;-0.196;2024-01-15T17:44:37;4.30;;;unknown;;
68144;SDS011;55400;51.824;-0.196;2024-01-15T17:47:56;4.30;;;unknown;;
68144;SDS011;55400;51.824;-0.196;2024-01-15T17:51:56;5.60;;;unknown;;
68144;SDS011;55400;51.824;-0.196;2024-01-15T17:55:56;3.70;;;unknown;;
68144;SDS011;55400;51.824;-0.196;2024-01-15T17:59:56;5.70;;;unknown;;
68144;SDS011;55400;51.824;-0.196;2024-01-15T18:03:56;3.90;;;unknown;;
68144;SDS011;55400;51.824;-0.196;2024-01-15T18:07:56;4.50;;;unknown;;
68144;SDS011;55400;51.824;-0.196;2024-01-15T18:11:56;6.30;;;unknown;;
68144;SDS011;55400;51.824;-0.196;2024-01-15T18:15:56;5.10;;;unknown;;
68144;SDS011;55400;51.824;-0.196;2024-01-15T18:19:56;3.70;;;unknown;;
68144;SDS011;55400;51.824;-0.196;2024-01-15T18:23:56;4.70;;;unknown;;
68144;SDS011;55400;51.824;-0.196;2024-01-15T18:27:56;4.80;;;unknown;;
68144;SDS011;55400;51.824;-0.196;2024-01-15T18:31:56;7.50;;;unknown;;
68144;SDS011;55400;51.824;-0.196;2024-01-15T18:35:56;3.80;;;unknown;;
68144;SDS011;55400;51.824;-0.196;2024-01-15T18:39:56;9.50;;;unknown;;
68144;SDS011;55400;51.824;-0.196;2024-01-15T18:43:56;5.60;;;unknown;;
68144;SDS011;55400;51.824;-0.196;2024-01-15T18:47:56;8.90;;;unknown;;
68144;SDS011;55400;51.824;-0.196;2024-01-15T18:51:56;8.80;;;unknown;;
68144;SDS011;55400;51.824;-0.196;2024-01-15T18:55:56;7.90;;;unknown;;
68144;SDS011;55400;51.824;-0.196;2024-01-15T18:59:56;5.40;;;unknown;;
68144;SDS011;55400;51.824;-0.196;2024-01-15T19:03:57;5.70;;;unknown;;
68144;SDS011;55400;51.824;-0.196;2024-01-15T19:07:56;5.80;;;unknown;;
68144;SDS011;55400;51.824;-0.196;2024-01-15T19:11:56;10.20;;;unknown;;
68144;SDS011;55400;51.824;-0.196;2024-01-15T19:15:56;7.80;;;unknown;;
68144;SDS011;55400;51.824;-0.196;2024-01-15T19:19:56;6.10;;;unknown;;
68144;SDS011;55400;51.824;-0.196;2024-01-15T19:23:57;6.60;;;unknown;;
68144;SDS011;55400;51.824;-0.196;2024-01-15T19:27:56;4.30;;;unknown;;
68144;SDS011;55400;51.824;-0.196;2024-01-15T19:31:56;5.00;;;unknown;;
68144;SDS011;55400;51.824;-0.196;2024-01-15T19:35:56;5.80;;;unknown;;
68144;SDS011;55400;51.824;-0.196;2024-01-15T19:39:56;5.70;;;unknown;;
68144;SDS011;55400;51.824;-0.196;2024-01-15T19:43:56;3.60;;;unknown;;
68144;SDS011;55400;51.824;-0.196;2024-01-15T19:47:56;4.00;;;unknown;;
68144;SDS011;55400;51.824;-0.196;2024-01-15T19:51:56;3.50;;;unknown;;
68144;SDS011;55400;51.824;-0.196;2024-01-15T19:55:56;3.30;;;unknown;;
68144;SDS011;55400;51.824;-0.196;2024-01-15T19:59:56;3.10;;;unknown;;
68144;SDS011;55400;51.824;-0.196;2024-01-15T20:03:56;8.50;;;unknown;;
68144;SDS011;55400;51.824;-0.196;2024-01-15T20:07:56;6.50;;;unknown;;
68144;SDS011;55400;51.824;-0.196;2024-01-15T20:12:01;6.70;;;unknown;;
68144;SDS011;55400;51.824;-0.196;2024-01-15T20:15:56;5.90;;;unknown;;
68144;SDS011;55400;51.824;-0.196;2024-01-15T20:19:56;8.30;;;unknown;;
68144;SDS011;55400;51.824;-0.196;2024-01-15T20:23:56;7.70;;;unknown;;
68144;SDS011;55400;51.824;-0.196;2024-01-15T20:35:56;4.90;;;unknown;;
68144;SDS011;55400;51.824;-0.196;2024-01-15T20:40:08;6.30;;;unknown;;
68144;SDS011;55400;51.824;-0.196;2024-01-15T20:43:57;8.20;;;unknown;;
68144;SDS011;55400;51.824;-0.196;2024-01-15T20:47:57;6.80;;;unknown;;
68144;SDS011;55400;51.824;-0.196;2024-01-15T20:51:57;7.40;;;unknown;;
68144;SDS011;55400;51.824;-0.196;2024-01-15T20:55:57;6.20;;;unknown;;
68144;SDS011;55400;51.824;-0.196;2024-01-15T20:59:57;4.70;;;unknown;;
68144;SDS011;55400;51.824;-0.196;2024-01-15T21:03:57;4.00;;;unknown;;
68144;SDS011;55400;51.824;-0.196;2024-01-15T21:07:57;7.20;;;unknown;;
68144;SDS011;55400;51.824;-0.196;2024-01-15T21:11:57;5.00;;;unknown;;
68144;SDS011;55400;51.824;-0.196;2024-01-15T21:15:57;7.70;;;unknown;;
68144;SDS011;55400;51.824;-0.196;2024-01-15T21:19:57;8.00;;;unknown;;
68144;SDS011;55400;51.824;-0.196;2024-01-15T21:23:57;7.20;;;unknown;;
68144;SDS011;55400;51.824;-0.196;2024-01-15T21:27:57;7.10;;;unknown;;
68144;SDS011;55400;51.824;-0.196;2024-01-15T21:31:57;6.70;;;unknown;;
68144;SDS011;55400;51.824;-0.196;2024-01-15T21:35:57;7.00;;;unknown;;
68144;SDS011;55400;51.824;-0.196;2024-01-15T21:39:57;11.50;;;unknown;;
68144;SDS011;55400;51.824;-0.196;2024-01-15T21:43:57;6.80;;;unknown;;
68144;SDS011;55400;51.824;-0.196;2024-01-15T21:47:58;9.30;;;unknown;;
68144;SDS011;55400;51.824;-0.196;2024-01-15T21:51:57;8.60;;;unknown;;
68144;SDS011;55400;51.824;-0.196;2024-01-15T21:55:57;7.70;;;unknown;;
68144;SDS011;55400;51.824;-0.196;2024-01-15T22:00:00;6.90;;;unknown;;
68144;SDS011;55400;51.824;-0.196;2024-01-15T22:03:57;8.70;;;unknown;;
68144;SDS011;55400;51.824;-0.196;2024-01-15T22:07:57;6.40;;;unknown;;
68144;SDS011;55400;51.824;-0.196;2024-01-15T22:11:57;7.30;;;unknown;;
68144;SDS011;55400;51.824;-0.196;2024-01-15T22:15:57;6.50;;;unknown;;
68144;SDS011;55400;51.824;-0.196;2024-01-15T22:19:57;8.00;;;unknown;;
68144;SDS011;55400;51.824;-0.196;2024-01-15T22:27:57;8.20;;;unknown;;
68144;SDS011;55400;51.824;-0.196;2024-01-15T22:35:57;8.40;;;unknown;;
68144;SDS011;55400;51.824;-0.196;2024-01-15T22:47:57;10.10;;;unknown;;
68144;SDS011;55400;51.824;-0.196;2024-01-15T22:55:57;7.20;;;unknown;;
68144;SDS011;55400;51.824;-0.196;2024-01-15T23:03:57;7.70;;;unknown;;
68144;SDS011;55400;51.824;-0.196;2024-01-15T23:07:57;7.90;;;unknown;;
68144;SDS011;55400;51.824;-0.196;2024-01-15T23:11:57;5.60;;;unknown;;
68144;SDS011;55400;51.824;-0.196;2024-01-15T23:15:57;6.20;;;unknown;;
68144;SDS011;55400;51.824;-0.196;2024-01-15T23:19:57;11.20;;;unknown;;
68144;SDS011;55400;51.824;-0.196;2024-01-15T23:23:57;6.80;;;unknown;;
68144;SDS011;55400;51.824;-0.196;2024-01-15T23:27:57;5.70;;;unknown;;
68144;SDS011;55400;51.824;-0.196;2024-01-15T23:31:57;8.00;;;unknown;;
68144;SDS011;55400;51.824;-0.196;2024-01-15T23:39:57;5.60;;;unknown;;
68144;SDS011;55400;51.824;-0.196;2024-01-15T23:43:57;6.60;;;unknown;;
68144;SDS011;55400;51.824;-0.196;2024-01-15T23:47:57;6.80;;;unknown;;
68144;SDS011;55400;51.824;-0.196;2024-01-15T23:51:57;6.00;;;unknown;;
68144;SDS011;55400;51.824;-0.196;2024-01-15T23:55:57;9.10;;;unknown;;
68144;SDS011;55400;51.824;-0.196;2024-01-15T23:59:57;4.50;;;unknown;;
